createdAt,value
2019-03-17T00:01:32.113Z,0.70
2019-03-17T00:04:35.557Z,0.70
2019-03-17T00:07:39.103Z,0.50
2019-03-17T00:10:43.635Z,0.40
2019-03-17T00:13:47.163Z,0.53
2019-03-17T00:16:50.625Z,0.67
2019-03-17T00:19:54.221Z,0.67
2019-03-17T00:22:58.647Z,0.65
2019-03-17T00:26:02.140Z,0.60
2019-03-17T00:29:07.355Z,0.63
2019-03-17T00:32:10.783Z,0.60
2019-03-17T00:35:15.325Z,0.63
2019-03-17T00:38:18.863Z,0.70
2019-03-17T00:41:23.337Z,0.57
2019-03-17T00:44:26.841Z,0.60
2019-03-17T00:47:30.544Z,0.50
2019-03-17T00:50:35.080Z,0.50
2019-03-17T00:53:38.579Z,0.60
2019-03-17T00:56:42.167Z,0.40
2019-03-17T00:59:45.685Z,0.70
2019-03-17T01:02:49.183Z,0.50
2019-03-17T01:05:52.836Z,0.53
2019-03-17T01:08:56.300Z,0.37
2019-03-17T01:11:59.877Z,0.57
2019-03-17T01:15:03.381Z,0.60
2019-03-17T01:18:06.992Z,0.50
2019-03-17T01:21:10.495Z,0.53
2019-03-17T01:24:15.035Z,0.57
2019-03-17T01:27:18.498Z,0.50
2019-03-17T01:30:23.064Z,0.50
2019-03-17T01:33:26.544Z,0.50
2019-03-17T01:36:30.039Z,0.60
2019-03-17T01:39:33.536Z,0.50
2019-03-17T01:42:37.039Z,0.50
2019-03-17T01:45:40.567Z,0.60
2019-03-17T01:48:44.028Z,0.80
2019-03-17T01:51:48.599Z,0.60
2019-03-17T01:54:53.113Z,0.60
2019-03-17T01:57:56.620Z,0.60
2019-03-17T02:01:00.042Z,0.50
2019-03-17T02:04:03.611Z,0.50
2019-03-17T02:07:07.098Z,0.60
2019-03-17T02:10:10.617Z,0.63
2019-03-17T02:13:14.119Z,0.50
2019-03-17T02:16:17.603Z,0.60
2019-03-17T02:19:23.196Z,0.77
2019-03-17T02:22:26.751Z,0.77
2019-03-17T02:25:31.397Z,0.50
2019-03-17T02:28:34.887Z,0.60
2019-03-17T02:31:38.394Z,0.53
2019-03-17T02:34:41.913Z,0.70
2019-03-17T02:37:45.369Z,0.67
2019-03-17T02:40:48.944Z,0.50
2019-03-17T02:43:52.381Z,0.60
2019-03-17T02:46:56.018Z,0.50
2019-03-17T02:49:59.444Z,0.50
2019-03-17T02:53:02.899Z,0.57
2019-03-17T02:56:06.390Z,0.47
2019-03-17T02:59:09.965Z,0.47
2019-03-17T03:02:14.438Z,0.60
2019-03-17T03:05:17.928Z,0.50
2019-03-17T03:08:21.419Z,0.80
2019-03-17T03:11:25.971Z,0.60
2019-03-17T03:14:29.426Z,0.40
2019-03-17T03:17:32.906Z,0.60
2019-03-17T03:20:36.483Z,0.60
2019-03-17T03:23:40.975Z,0.60
2019-03-17T03:26:44.496Z,0.50
2019-03-17T03:29:49.045Z,0.63
2019-03-17T03:32:54.559Z,0.50
2019-03-17T03:36:09.994Z,0.60
2019-03-17T03:39:04.444Z,0.50
2019-03-17T03:42:07.920Z,0.60
2019-03-17T03:45:11.611Z,0.43
2019-03-17T03:48:15.138Z,0.60
2019-03-17T03:51:18.634Z,0.60
2019-03-17T03:54:22.127Z,0.50
2019-03-17T03:57:26.662Z,0.50
2019-03-17T04:00:30.124Z,0.60
2019-03-17T04:03:33.691Z,0.72
2019-03-17T04:06:37.132Z,0.50
2019-03-17T04:09:40.709Z,0.50
2019-03-17T04:12:44.179Z,0.60
2019-03-17T04:15:47.737Z,0.60
2019-03-17T04:18:52.286Z,0.70
2019-03-17T04:21:55.863Z,0.60
2019-03-17T04:24:59.294Z,0.50
2019-03-17T04:28:02.831Z,0.60
2019-03-17T04:31:06.424Z,0.63
2019-03-17T04:34:11.932Z,0.70
2019-03-17T04:37:15.460Z,0.67
2019-03-17T04:40:18.962Z,0.63
2019-03-17T04:43:28.383Z,0.60
2019-03-17T04:46:31.832Z,0.60
2019-03-17T04:49:35.302Z,0.77
2019-03-17T04:52:38.837Z,0.70
2019-03-17T04:55:42.384Z,0.70
2019-03-17T04:58:45.887Z,0.70
2019-03-17T05:01:49.429Z,0.70
2019-03-17T05:04:53.180Z,0.67
2019-03-17T05:07:56.787Z,0.60
2019-03-17T05:11:01.335Z,0.83
2019-03-17T05:14:04.873Z,0.70
2019-03-17T05:17:08.309Z,0.73
2019-03-17T05:20:11.835Z,0.53
2019-03-17T05:23:15.337Z,0.70
2019-03-17T05:26:18.780Z,0.70
2019-03-17T05:29:22.217Z,0.73
2019-03-17T05:32:25.826Z,0.80
2019-03-17T05:35:29.263Z,0.73
2019-03-17T05:38:32.849Z,0.80
2019-03-17T05:41:36.386Z,0.60
2019-03-17T05:44:40.899Z,0.70
2019-03-17T05:47:44.383Z,0.50
2019-03-17T05:50:47.871Z,0.73
2019-03-17T05:53:51.357Z,0.70
2019-03-17T05:56:54.885Z,0.90
2019-03-17T05:59:58.345Z,0.90
2019-03-17T06:03:01.792Z,0.77
2019-03-17T06:06:05.361Z,0.70
2019-03-17T06:09:08.806Z,0.80
2019-03-17T06:12:12.318Z,0.90
2019-03-17T06:15:15.907Z,0.87
2019-03-17T06:18:19.379Z,0.73
2019-03-17T06:21:22.874Z,0.77
2019-03-17T06:24:26.394Z,0.70
2019-03-17T06:27:29.864Z,0.55
2019-03-17T06:30:33.328Z,0.60
2019-03-17T06:33:36.757Z,0.60
2019-03-17T06:36:40.375Z,0.80
2019-03-17T06:39:43.964Z,0.73
2019-03-17T06:42:47.592Z,0.90
2019-03-17T06:45:51.176Z,0.67
2019-03-17T06:48:55.803Z,0.70
2019-03-17T06:51:59.236Z,0.80
2019-03-17T06:55:02.719Z,0.77
2019-03-17T06:58:06.221Z,0.80
2019-03-17T07:01:09.770Z,0.90
2019-03-17T07:04:13.330Z,0.80
2019-03-17T07:07:16.877Z,0.60
2019-03-17T07:10:20.304Z,0.70
2019-03-17T07:13:24.835Z,0.70
2019-03-17T07:16:28.451Z,0.70
2019-03-17T07:19:31.872Z,0.70
2019-03-17T07:22:35.340Z,0.57
2019-03-17T07:25:40.888Z,0.80
2019-03-17T07:28:44.404Z,0.77
2019-03-17T07:31:47.883Z,0.70
2019-03-17T07:34:51.386Z,0.60
2019-03-17T07:37:56.946Z,0.80
2019-03-17T07:41:01.049Z,0.95
2019-03-17T07:44:04.590Z,1.07
2019-03-17T07:47:08.033Z,0.80
2019-03-17T07:50:11.642Z,0.73
2019-03-17T07:53:16.114Z,0.80
2019-03-17T07:56:19.591Z,1.00
2019-03-17T07:59:23.069Z,0.80
2019-03-17T08:02:26.695Z,0.90
2019-03-17T08:05:30.278Z,0.90
2019-03-17T08:08:33.831Z,0.90
2019-03-17T08:11:37.306Z,0.80
2019-03-17T08:14:42.996Z,0.67
2019-03-17T08:17:46.475Z,0.90
2019-03-17T08:20:49.982Z,0.70
2019-03-17T08:23:53.437Z,0.90
2019-03-17T08:26:57.164Z,0.90
2019-03-17T08:30:00.666Z,0.87
2019-03-17T08:33:04.097Z,0.70
2019-03-17T08:36:08.573Z,0.78
2019-03-17T08:39:12.187Z,0.73
2019-03-17T08:42:15.807Z,0.70
2019-03-17T08:45:19.301Z,0.90
2019-03-17T08:48:22.754Z,0.80
2019-03-17T08:51:27.217Z,0.57
2019-03-17T08:54:30.813Z,0.80
2019-03-17T08:57:34.282Z,0.90
2019-03-17T09:00:38.817Z,0.72
2019-03-17T09:03:42.347Z,0.80
2019-03-17T09:06:45.847Z,0.87
2019-03-17T09:09:49.294Z,0.73
2019-03-17T09:12:52.752Z,0.98
2019-03-17T09:15:56.171Z,1.00
2019-03-17T09:18:59.669Z,0.90
2019-03-17T09:22:03.092Z,0.90
2019-03-17T09:25:07.553Z,1.00
2019-03-17T09:28:11.056Z,0.90
2019-03-17T09:31:14.618Z,0.70
2019-03-17T09:34:18.094Z,0.80
2019-03-17T09:37:21.657Z,0.90
2019-03-17T09:40:26.086Z,1.03
2019-03-17T09:43:29.532Z,0.90
2019-03-17T09:46:32.989Z,1.00
2019-03-17T09:49:36.474Z,0.90
2019-03-17T09:52:40.009Z,0.87
2019-03-17T09:55:43.529Z,0.80
2019-03-17T09:58:47.009Z,0.80
2019-03-17T10:01:50.509Z,0.83
2019-03-17T10:04:53.984Z,0.73
2019-03-17T10:07:57.497Z,1.02
2019-03-17T10:11:01.004Z,0.90
2019-03-17T10:14:04.529Z,0.90
2019-03-17T10:17:09.024Z,0.90
2019-03-17T10:20:14.633Z,0.83
2019-03-17T10:23:18.074Z,0.80
2019-03-17T10:26:21.516Z,1.10
2019-03-17T10:29:25.066Z,0.93
2019-03-17T10:32:28.613Z,0.85
2019-03-17T10:35:32.081Z,0.90
2019-03-17T10:38:35.557Z,0.80
2019-03-17T10:41:39.076Z,0.85
2019-03-17T10:44:42.531Z,0.88
2019-03-17T10:47:45.983Z,0.72
2019-03-17T10:50:50.092Z,1.05
2019-03-17T10:53:53.653Z,1.15
2019-03-17T10:56:57.104Z,1.00
2019-03-17T11:00:00.612Z,1.02
2019-03-17T11:03:05.121Z,1.02
2019-03-17T11:06:08.637Z,1.30
2019-03-17T11:09:24.411Z,1.37
2019-03-17T11:12:17.215Z,1.00
2019-03-17T11:15:20.672Z,1.20
2019-03-17T11:18:24.220Z,0.83
2019-03-17T11:21:27.769Z,1.00
2019-03-17T11:24:31.195Z,1.10
2019-03-17T11:27:34.660Z,1.47
2019-03-17T11:30:38.183Z,1.17
2019-03-17T11:33:41.613Z,1.33
2019-03-17T11:36:45.164Z,1.02
2019-03-17T11:39:48.693Z,0.90
2019-03-17T11:42:52.173Z,1.15
2019-03-17T11:45:55.679Z,1.00
2019-03-17T11:48:59.209Z,1.07
2019-03-17T11:52:02.634Z,0.93
2019-03-17T11:55:07.231Z,1.07
2019-03-17T11:58:10.736Z,0.82
2019-03-17T12:01:14.217Z,0.98
2019-03-17T12:04:17.986Z,0.93
2019-03-17T12:07:21.540Z,1.10
2019-03-17T12:10:24.991Z,0.80
2019-03-17T12:13:28.441Z,1.10
2019-03-17T12:16:32.955Z,1.25
2019-03-17T12:19:36.452Z,1.30
2019-03-17T12:22:40.989Z,1.07
2019-03-17T12:25:44.493Z,1.07
2019-03-17T12:28:47.982Z,1.00
2019-03-17T12:31:51.575Z,1.40
2019-03-17T12:34:55.211Z,1.10
2019-03-17T12:37:59.698Z,1.17
2019-03-17T12:41:03.280Z,1.32
2019-03-17T12:44:07.049Z,1.12
2019-03-17T12:47:13.407Z,1.47
2019-03-17T12:50:19.049Z,0.95
2019-03-17T12:53:23.641Z,0.98
2019-03-17T12:56:27.276Z,1.10
2019-03-17T12:59:30.791Z,1.30
2019-03-17T13:02:34.259Z,1.15
2019-03-17T13:05:37.895Z,1.10
2019-03-17T13:08:41.488Z,1.45
2019-03-17T13:11:44.972Z,1.02
2019-03-17T13:14:48.417Z,1.30
2019-03-17T13:17:53.051Z,1.10
2019-03-17T13:20:56.705Z,1.30
2019-03-17T13:24:00.234Z,1.20
2019-03-17T13:27:03.811Z,1.25
2019-03-17T13:30:09.779Z,1.20
2019-03-17T13:33:13.460Z,1.30
2019-03-17T13:36:17.102Z,1.17
2019-03-17T13:39:20.648Z,1.15
2019-03-17T13:42:24.318Z,1.37
2019-03-17T13:45:27.791Z,1.00
2019-03-17T13:48:31.323Z,1.07
2019-03-17T13:51:35.811Z,1.07
2019-03-17T13:54:39.525Z,1.50
2019-03-17T13:57:43.311Z,1.10
2019-03-17T14:00:47.057Z,1.22
2019-03-17T14:03:54.977Z,1.17
2019-03-17T14:06:59.769Z,1.02
2019-03-17T14:10:13.389Z,1.30
2019-03-17T14:13:08.722Z,1.25
2019-03-17T14:16:12.199Z,1.37
2019-03-17T14:19:15.644Z,1.12
2019-03-17T14:22:20.227Z,1.15
2019-03-17T14:25:24.914Z,0.80
2019-03-17T14:28:28.455Z,1.60
2019-03-17T14:31:32.006Z,1.10
2019-03-17T14:34:35.527Z,1.17
2019-03-17T14:37:39.217Z,1.10
2019-03-17T14:40:52.760Z,1.00
2019-03-17T14:43:47.834Z,1.25
2019-03-17T14:46:51.321Z,1.25
2019-03-17T14:49:54.823Z,1.05
2019-03-17T14:53:00.671Z,1.07
2019-03-17T14:56:03.517Z,0.98
2019-03-17T14:59:06.962Z,1.05
2019-03-17T15:02:10.472Z,1.12
2019-03-17T15:05:15.017Z,1.10
2019-03-17T15:08:18.488Z,1.02
2019-03-17T15:11:23.392Z,1.10
2019-03-17T15:14:26.826Z,1.30
2019-03-17T15:17:30.399Z,1.52
2019-03-17T15:20:33.845Z,1.35
2019-03-17T15:23:37.353Z,1.47
2019-03-17T15:26:40.904Z,1.45
2019-03-17T15:29:44.482Z,1.10
2019-03-17T15:32:47.939Z,1.20
2019-03-17T15:35:51.439Z,1.20
2019-03-17T15:38:54.868Z,1.55
2019-03-17T15:41:59.569Z,1.40
2019-03-17T15:45:03.025Z,1.02
2019-03-17T15:48:06.533Z,1.30
2019-03-17T15:51:19.451Z,1.20
2019-03-17T15:54:15.294Z,1.10
2019-03-17T15:57:18.845Z,1.17
2019-03-17T16:00:26.799Z,0.95
2019-03-17T16:03:28.275Z,1.10
2019-03-17T16:06:31.794Z,1.10
2019-03-17T16:09:35.275Z,0.98
2019-03-17T16:12:38.780Z,1.00
2019-03-17T16:15:42.264Z,0.80
2019-03-17T16:18:45.762Z,0.90
2019-03-17T16:21:49.268Z,1.37
2019-03-17T16:24:52.761Z,1.00
2019-03-17T16:27:56.265Z,0.85
2019-03-17T16:31:00.895Z,0.98
2019-03-17T16:34:04.499Z,0.90
2019-03-17T16:37:08.037Z,0.88
2019-03-17T16:40:13.428Z,0.78
2019-03-17T16:43:17.070Z,1.07
2019-03-17T16:46:20.566Z,1.00
2019-03-17T16:49:26.299Z,1.07
2019-03-17T16:52:29.835Z,0.80
2019-03-17T16:55:34.358Z,0.93
2019-03-17T16:58:37.865Z,1.02
2019-03-17T17:01:41.372Z,0.90
2019-03-17T17:04:45.847Z,0.93
2019-03-17T17:07:55.110Z,0.80
2019-03-17T17:11:00.552Z,0.85
2019-03-17T17:14:03.892Z,1.25
2019-03-17T17:17:07.462Z,1.12
2019-03-17T17:20:13.503Z,0.70
2019-03-17T17:23:17.062Z,0.98
2019-03-17T17:26:20.602Z,0.80
2019-03-17T17:29:24.037Z,1.00
2019-03-17T17:32:27.537Z,0.68
2019-03-17T17:35:31.027Z,0.78
2019-03-17T17:38:34.664Z,0.80
2019-03-17T17:41:40.172Z,0.60
2019-03-17T17:44:43.683Z,0.72
2019-03-17T17:47:47.248Z,0.80
2019-03-17T17:50:51.017Z,0.82
2019-03-17T17:53:54.605Z,0.95
2019-03-17T17:56:59.109Z,0.80
2019-03-17T18:00:02.612Z,0.70
2019-03-17T18:03:06.113Z,0.80
2019-03-17T18:06:09.658Z,0.60
2019-03-17T18:09:14.142Z,0.70
2019-03-17T18:12:21.266Z,0.72
2019-03-17T18:15:22.986Z,0.70
2019-03-17T18:18:27.530Z,0.57
2019-03-17T18:21:31.078Z,0.70
2019-03-17T18:24:34.698Z,0.80
2019-03-17T18:27:38.324Z,0.90
2019-03-17T18:30:41.941Z,0.65
2019-03-17T18:33:45.435Z,0.60
2019-03-17T18:36:48.946Z,0.50
2019-03-17T18:39:54.465Z,0.53
2019-03-17T18:42:58.070Z,0.62
2019-03-17T18:46:01.662Z,0.80
2019-03-17T18:49:05.194Z,0.70
2019-03-17T18:52:08.703Z,0.80
2019-03-17T18:55:13.835Z,0.68
2019-03-17T18:58:17.226Z,0.80
2019-03-17T19:01:22.864Z,0.72
2019-03-17T19:04:26.389Z,0.62
2019-03-17T19:07:29.898Z,0.60
2019-03-17T19:10:34.390Z,0.60
2019-03-17T19:13:38.907Z,0.70
2019-03-17T19:16:42.414Z,0.70
2019-03-17T19:19:45.913Z,0.65
2019-03-17T19:22:49.472Z,0.90
2019-03-17T19:25:53.971Z,0.70
2019-03-17T19:28:57.548Z,0.60
2019-03-17T19:32:01.257Z,0.70
2019-03-17T19:35:04.911Z,0.90
2019-03-17T19:38:08.774Z,0.90
2019-03-17T19:41:12.358Z,0.78
2019-03-17T19:44:16.033Z,0.68
2019-03-17T19:47:19.582Z,0.62
2019-03-17T19:50:23.242Z,0.65
2019-03-17T19:53:27.704Z,0.60
2019-03-17T19:56:31.221Z,0.70
2019-03-17T19:59:34.819Z,0.70
2019-03-17T20:02:38.526Z,0.50
2019-03-17T20:05:42.241Z,0.80
2019-03-17T20:08:45.815Z,0.60
2019-03-17T20:11:49.357Z,0.80
2019-03-17T20:14:52.843Z,0.68
2019-03-17T20:17:56.370Z,0.82
2019-03-17T20:20:59.909Z,0.70
2019-03-17T20:24:03.539Z,0.62
2019-03-17T20:27:07.050Z,0.60
2019-03-17T20:30:11.361Z,0.60
2019-03-17T20:33:16.938Z,1.00
2019-03-17T20:36:20.505Z,0.80
2019-03-17T20:39:25.196Z,0.80
2019-03-17T20:42:28.841Z,0.80
2019-03-17T20:45:32.452Z,0.60
2019-03-17T20:48:37.995Z,0.75
2019-03-17T20:51:41.586Z,0.70
2019-03-17T20:54:45.099Z,0.65
2019-03-17T20:57:48.631Z,0.60
2019-03-17T21:00:52.109Z,0.80
2019-03-17T21:03:55.727Z,0.70
2019-03-17T21:06:59.226Z,0.60
2019-03-17T21:10:02.748Z,0.60
2019-03-17T21:13:06.261Z,0.62
2019-03-17T21:16:09.713Z,0.60
2019-03-17T21:19:13.320Z,0.60
2019-03-17T21:22:16.804Z,0.50
2019-03-17T21:25:20.433Z,0.60
2019-03-17T21:28:24.030Z,0.70
2019-03-17T21:31:28.553Z,0.50
2019-03-17T21:34:32.055Z,0.70
2019-03-17T21:37:35.922Z,0.60
2019-03-17T21:40:53.059Z,0.70
2019-03-17T21:43:44.548Z,0.72
2019-03-17T21:46:48.078Z,0.65
2019-03-17T21:49:51.515Z,0.65
2019-03-17T21:52:54.996Z,0.80
2019-03-17T21:55:58.616Z,0.72
2019-03-17T21:59:02.118Z,0.70
2019-03-17T22:02:12.731Z,0.70
2019-03-17T22:05:12.164Z,0.60
2019-03-17T22:08:16.732Z,0.70
2019-03-17T22:11:20.207Z,0.53
2019-03-17T22:14:23.685Z,0.83
2019-03-17T22:17:27.196Z,0.80
2019-03-17T22:20:31.782Z,0.60
2019-03-17T22:23:35.281Z,0.80
2019-03-17T22:26:38.725Z,0.62
2019-03-17T22:29:42.324Z,0.68
2019-03-17T22:32:45.951Z,0.60
2019-03-17T22:35:49.452Z,0.50
2019-03-17T22:38:52.951Z,0.82
2019-03-17T22:42:02.304Z,0.45
2019-03-17T22:45:06.383Z,0.60
2019-03-17T22:48:09.997Z,0.53
2019-03-17T22:51:13.434Z,0.60
2019-03-17T22:54:17.003Z,0.53
2019-03-17T22:57:20.501Z,0.70
2019-03-17T23:00:32.399Z,0.50
2019-03-17T23:03:35.871Z,0.57
2019-03-17T23:06:41.305Z,0.50
2019-03-17T23:09:45.014Z,0.68
2019-03-17T23:12:48.467Z,0.60
2019-03-17T23:15:52.990Z,0.70
2019-03-17T23:18:56.442Z,0.67
2019-03-17T23:22:01.012Z,0.60
2019-03-17T23:25:04.550Z,0.60
2019-03-17T23:28:08.196Z,0.70
2019-03-17T23:31:12.725Z,0.50
2019-03-17T23:34:16.337Z,0.60
2019-03-17T23:37:19.931Z,0.80
2019-03-17T23:40:23.396Z,0.60
2019-03-17T23:43:26.873Z,0.70
2019-03-17T23:46:30.365Z,0.60
2019-03-17T23:49:33.810Z,0.70
2019-03-17T23:52:37.430Z,0.47
2019-03-17T23:55:40.958Z,0.50
2019-03-17T23:58:45.447Z,0.65
